createdAt,value
2019-05-03T00:04:48.367Z,1.20
2019-05-03T00:10:18.552Z,2.13
2019-05-03T00:15:55.589Z,1.87
2019-05-03T00:21:25.082Z,1.33
2019-05-03T00:26:54.636Z,1.50
2019-05-03T00:32:25.679Z,1.43
2019-05-03T00:37:56.698Z,1.53
2019-05-03T00:43:26.465Z,1.50
2019-05-03T00:48:55.844Z,1.07
2019-05-03T00:54:25.404Z,1.60
2019-05-03T00:59:54.946Z,1.53
2019-05-03T01:05:24.481Z,2.33
2019-05-03T01:10:53.809Z,2.30
2019-05-03T01:16:25.008Z,5.03
2019-05-03T01:21:54.487Z,1.60
2019-05-03T01:27:23.852Z,1.80
2019-05-03T01:32:53.340Z,1.13
2019-05-03T01:38:22.854Z,1.70
2019-05-03T01:43:52.785Z,1.60
2019-05-03T01:49:35.977Z,1.30
2019-05-03T01:55:06.611Z,1.50
2019-05-03T02:00:36.011Z,1.27
2019-05-03T02:06:05.613Z,1.50
2019-05-03T02:11:35.018Z,1.53
2019-05-03T02:17:04.903Z,1.73
2019-05-03T02:22:34.301Z,1.90
2019-05-03T02:28:03.860Z,2.63
2019-05-03T02:33:33.198Z,1.30
2019-05-03T02:39:03.059Z,1.63
2019-05-03T02:44:35.591Z,2.10
2019-05-03T02:50:16.817Z,1.47
2019-05-03T02:55:46.550Z,1.73
2019-05-03T03:01:16.474Z,1.67
2019-05-03T03:06:48.169Z,3.00
2019-05-03T03:12:19.188Z,1.67
2019-05-03T03:17:50.353Z,1.47
2019-05-03T03:23:21.341Z,1.63
2019-05-03T03:28:56.323Z,1.40
2019-05-03T03:34:55.418Z,1.57
2019-05-03T03:40:20.480Z,1.53
2019-05-03T03:45:51.790Z,1.60
2019-05-03T03:51:26.332Z,1.43
2019-05-03T03:57:03.958Z,1.47
2019-05-03T04:02:29.556Z,2.43
2019-05-03T04:07:59.157Z,1.87
2019-05-03T04:13:28.708Z,1.57
2019-05-03T04:19:00.037Z,2.67
2019-05-03T04:24:30.948Z,1.90
2019-05-03T04:30:00.394Z,7.30
2019-05-03T04:35:29.895Z,4.23
2019-05-03T04:40:59.311Z,4.90
2019-05-03T04:46:31.405Z,4.40
2019-05-03T04:52:00.769Z,6.23
2019-05-03T04:57:39.847Z,8.23
2019-05-03T05:03:01.401Z,8.67
2019-05-03T05:08:30.762Z,7.77
2019-05-03T05:14:00.124Z,9.90
2019-05-03T05:19:31.084Z,13.40
2019-05-03T05:25:04.354Z,11.37
2019-05-03T05:30:35.303Z,12.53
2019-05-03T05:36:04.893Z,11.97
2019-05-03T05:41:34.817Z,12.10
2019-05-03T05:47:06.023Z,10.97
2019-05-03T05:52:35.341Z,13.93
2019-05-03T05:58:08.317Z,18.00
2019-05-03T06:03:37.910Z,15.93
2019-05-03T06:09:15.985Z,13.60
2019-05-03T06:14:47.511Z,14.80
2019-05-03T06:20:20.114Z,13.93
2019-05-03T06:25:49.778Z,21.60
2019-05-03T06:31:22.690Z,15.33
2019-05-03T06:36:55.285Z,16.07
2019-05-03T06:42:25.479Z,15.83
2019-05-03T06:47:55.153Z,16.00
2019-05-03T06:53:25.435Z,25.43
2019-05-03T06:58:55.239Z,20.97
2019-05-03T07:04:26.286Z,19.60
2019-05-03T07:09:57.249Z,20.50
2019-05-03T07:15:29.312Z,26.27
2019-05-03T07:20:58.967Z,29.13
2019-05-03T07:26:28.611Z,26.97
2019-05-03T07:31:58.437Z,27.77
2019-05-03T07:37:27.741Z,32.83
2019-05-03T07:42:57.138Z,29.77
2019-05-03T07:48:27.050Z,31.23
2019-05-03T07:53:56.483Z,41.17
2019-05-03T07:59:25.899Z,30.90
2019-05-03T08:04:55.353Z,29.27
2019-05-03T08:10:25.644Z,32.20
2019-05-03T08:15:55.892Z,34.40
2019-05-03T08:21:25.500Z,33.93
2019-05-03T08:26:55.770Z,30.73
2019-05-03T08:32:29.835Z,28.97
2019-05-03T08:38:00.375Z,31.37
2019-05-03T08:43:29.704Z,32.70
2019-05-03T08:48:59.251Z,30.20
2019-05-03T08:54:28.791Z,32.53
2019-05-03T08:59:58.342Z,29.10
2019-05-03T09:05:27.763Z,25.70
2019-05-03T09:11:05.122Z,26.23
2019-05-03T09:16:37.854Z,18.57
2019-05-03T09:22:07.593Z,17.87
2019-05-03T09:27:36.995Z,21.40
2019-05-03T09:33:09.062Z,15.27
2019-05-03T09:38:40.494Z,13.50
2019-05-03T09:44:10.019Z,5.90
2019-05-03T09:49:39.912Z,8.80
2019-05-03T09:55:27.415Z,8.47
2019-05-03T10:00:59.240Z,8.07
2019-05-03T10:06:29.106Z,7.50
2019-05-03T10:12:00.723Z,9.90
2019-05-03T10:17:36.079Z,4.33
2019-05-03T10:23:09.897Z,8.20
2019-05-03T10:28:39.853Z,9.73
2019-05-03T10:34:11.368Z,10.30
2019-05-03T10:39:41.154Z,6.20
2019-05-03T10:45:11.057Z,5.33
2019-05-03T10:50:40.851Z,6.10
2019-05-03T10:56:24.563Z,4.03
2019-05-03T11:01:57.221Z,4.70
2019-05-03T11:07:26.998Z,5.40
2019-05-03T11:12:58.629Z,4.80
2019-05-03T11:18:28.495Z,4.50
2019-05-03T11:23:58.258Z,6.30
2019-05-03T11:29:28.135Z,6.37
2019-05-03T11:35:00.013Z,7.30
2019-05-03T11:40:29.865Z,4.70
2019-05-03T11:45:59.469Z,6.03
2019-05-03T11:51:28.860Z,6.97
2019-05-03T11:57:00.251Z,4.60
2019-05-03T12:02:32.551Z,5.00
2019-05-03T12:08:10.818Z,3.27
2019-05-03T12:13:41.427Z,3.70
2019-05-03T12:19:17.027Z,3.50
2019-05-03T12:24:43.186Z,4.70
2019-05-03T12:30:15.299Z,5.07
2019-05-03T12:35:46.183Z,6.40
2019-05-03T12:41:16.214Z,6.47
2019-05-03T12:46:45.557Z,8.20
2019-05-03T12:52:17.400Z,9.60
2019-05-03T12:57:47.456Z,9.70
2019-05-03T13:03:19.729Z,17.20
2019-05-03T13:08:49.557Z,11.73
2019-05-03T13:14:19.079Z,15.70
2019-05-03T13:19:48.636Z,14.20
2019-05-03T13:25:18.276Z,14.10
2019-05-03T13:30:47.802Z,9.87
2019-05-03T13:36:18.347Z,15.27
2019-05-03T13:41:48.179Z,9.50
2019-05-03T13:47:17.769Z,11.70
2019-05-03T13:52:47.353Z,12.90
2019-05-03T13:58:17.095Z,13.23
2019-05-03T14:03:46.661Z,15.37
2019-05-03T14:09:16.753Z,13.83
2019-05-03T14:14:55.866Z,14.40
2019-05-03T14:20:43.987Z,12.07
2019-05-03T14:26:15.123Z,14.23
2019-05-03T14:31:46.118Z,11.40
2019-05-03T14:37:17.202Z,11.40
2019-05-03T14:42:47.057Z,10.13
2019-05-03T14:48:16.743Z,10.50
2019-05-03T14:53:49.175Z,8.80
2019-05-03T14:59:28.894Z,10.27
2019-05-03T15:04:58.324Z,13.67
2019-05-03T15:10:27.695Z,11.17
2019-05-03T15:15:57.185Z,10.83
2019-05-03T15:21:26.620Z,11.83
2019-05-03T15:26:56.064Z,9.43
2019-05-03T15:32:31.257Z,9.13
2019-05-03T15:38:00.767Z,8.50
2019-05-03T15:43:45.628Z,10.90
2019-05-03T15:49:15.312Z,12.97
2019-05-03T15:54:44.798Z,10.70
2019-05-03T16:00:16.117Z,9.30
2019-05-03T16:05:45.654Z,11.93
2019-05-03T16:11:15.044Z,10.47
2019-05-03T16:16:45.135Z,7.63
2019-05-03T16:22:17.634Z,9.00
2019-05-03T16:28:04.663Z,9.30
2019-05-03T16:33:35.016Z,13.93
2019-05-03T16:39:06.412Z,10.10
2019-05-03T16:44:35.825Z,11.47
2019-05-03T16:50:16.633Z,13.03
2019-05-03T16:55:48.890Z,13.90
2019-05-03T17:01:19.562Z,11.53
2019-05-03T17:07:06.652Z,14.00
2019-05-03T17:12:38.378Z,11.10
2019-05-03T17:18:09.000Z,12.00
2019-05-03T17:23:38.433Z,12.90
2019-05-03T17:29:07.877Z,12.43
2019-05-03T17:34:37.390Z,14.20
2019-05-03T17:45:58.780Z,12.33
2019-05-03T17:51:39.226Z,12.97
2019-05-03T17:57:24.272Z,11.80
2019-05-03T18:02:55.474Z,13.10
2019-05-03T18:08:32.282Z,14.73
2019-05-03T18:14:01.577Z,14.33
2019-05-03T18:19:30.885Z,12.43
2019-05-03T18:25:02.833Z,14.30
2019-05-03T18:30:32.113Z,19.23
2019-05-03T18:36:01.432Z,14.90
2019-05-03T18:41:30.737Z,19.20
2019-05-03T18:47:01.733Z,16.60
2019-05-03T18:52:31.044Z,17.10
2019-05-03T18:58:04.346Z,18.40
2019-05-03T19:03:34.482Z,16.17
2019-05-03T19:09:06.228Z,16.13
2019-05-03T19:14:35.623Z,18.73
2019-05-03T19:20:08.296Z,16.33
2019-05-03T19:25:47.021Z,19.40
2019-05-03T19:31:08.901Z,19.83
2019-05-03T19:36:39.207Z,21.40
2019-05-03T19:42:08.829Z,24.90
2019-05-03T19:47:38.183Z,18.20
2019-05-03T19:53:09.249Z,18.13
2019-05-03T19:58:38.624Z,19.23
2019-05-03T20:04:26.677Z,17.23
2019-05-03T20:09:55.989Z,18.00
2019-05-03T20:15:25.451Z,15.30
2019-05-03T20:20:55.388Z,15.70
2019-05-03T20:26:25.331Z,14.70
2019-05-03T20:31:55.182Z,17.50
2019-05-03T20:37:25.102Z,18.53
2019-05-03T20:42:56.196Z,15.43
2019-05-03T20:48:25.545Z,17.27
2019-05-03T20:53:57.522Z,16.97
2019-05-03T20:59:27.011Z,17.80
2019-05-03T21:04:56.290Z,17.27
2019-05-03T21:10:25.658Z,17.20
2019-05-03T21:15:59.604Z,16.27
2019-05-03T21:21:44.884Z,16.07
2019-05-03T21:27:14.235Z,15.47
2019-05-03T21:32:44.396Z,16.17
2019-05-03T21:38:13.675Z,18.53
2019-05-03T21:43:45.079Z,17.93
2019-05-03T21:49:15.754Z,17.73
2019-05-03T21:54:45.173Z,15.60
2019-05-03T22:00:16.407Z,17.23
2019-05-03T22:05:54.461Z,15.20
2019-05-03T22:11:16.696Z,16.03
2019-05-03T22:16:56.377Z,15.70
2019-05-03T22:22:30.356Z,18.17
2019-05-03T22:27:59.618Z,17.60
2019-05-03T22:33:29.492Z,18.23
2019-05-03T22:38:58.769Z,17.03
2019-05-03T22:44:30.393Z,22.60
2019-05-03T22:49:59.830Z,18.80
2019-05-03T22:55:29.147Z,20.10
2019-05-03T23:00:58.495Z,20.93
2019-05-03T23:06:27.781Z,20.13
2019-05-03T23:11:57.225Z,18.43
2019-05-03T23:17:26.771Z,21.20
2019-05-03T23:22:56.052Z,20.40
2019-05-03T23:28:25.328Z,18.87
2019-05-03T23:33:54.614Z,20.87
2019-05-03T23:39:24.908Z,19.40
2019-05-03T23:44:54.386Z,19.63
2019-05-03T23:50:24.869Z,20.67
2019-05-03T23:56:01.844Z,20.73
